Garze, China
Current Conditions -  °F | °C
As of 1:00 AM on Monday 24 Nov 2014 (Local Time) from ZUUU Reporting Station
Haze Haze  
Wind Chill: 55°   Ceiling: Unl
Heat Index: 55°   Visibility: 1.8mi
Dew Point: 50°   Wind: 0mph
Humidity: 82%   Direction: NA
Pressure: 30.12"   Gusts: NA
Location:  31.62°N, 100°E
Report Text: ZUUU 231700Z 00000MPS 3000 BR SCT040 13/10 Q1020 NOSIG
Loading
Personal Weather Stations






























Interactive Weather Map New forecast layout! Learn more

10-Day Weather Forecast

Advertisements
Track Severe Weather on mobile